Time;durP1;ratioP1;P1;durP2;ratioP2;P2;SDS_P1;SDS_P2;PMS_P1;PMS_P2;Temp;Humidity;BMP_temperature;BMP_pressure;BME280_temperature;BME280_humidity;BME280_pressure;Samples;Min_cycle;Max_cycle;Signal;HPM_P1;HPM_P2
2021/04/08 00:00:23;;;;;;;7.93;3.10;;;1.20;65.10;;;;;;5040136;28;20193;-56
2021/04/08 00:02:49;;;;;;;6.40;3.37;;;1.20;64.20;;;;;;5048842;28;20185;-56
2021/04/08 00:05:15;;;;;;;4.23;3.13;;;1.20;65.00;;;;;;5048630;28;20418;-57
2021/04/08 00:07:41;;;;;;;5.63;3.03;;;1.20;65.30;;;;;;5048376;28;20207;-56
2021/04/08 00:10:09;;;;;;;4.33;3.00;;;1.20;65.20;;;;;;5045725;28;20450;-57
2021/04/08 00:12:34;;;;;;;4.03;3.10;;;1.20;65.90;;;;;;5049532;28;20872;-56
2021/04/08 00:15:00;;;;;;;9.57;3.90;;;1.10;65.30;;;;;;5050183;28;20949;-56
2021/04/08 00:17:26;;;;;;;3.93;2.57;;;1.20;65.80;;;;;;5045791;28;20660;-57
2021/04/08 00:19:52;;;;;;;3.27;2.90;;;1.20;65.40;;;;;;5046338;28;20436;-55
2021/04/08 00:22:17;;;;;;;3.90;2.70;;;1.20;66.20;;;;;;5049012;28;20205;-56
2021/04/08 00:24:43;;;;;;;5.47;3.17;;;1.20;66.50;;;;;;5046142;28;20200;-56
2021/04/08 00:27:08;;;;;;;9.73;3.40;;;1.20;65.90;;;;;;5044102;28;20271;-56
2021/04/08 00:29:34;;;;;;;7.23;3.77;;;1.20;66.30;;;;;;5048362;28;20231;-57
2021/04/08 00:32:00;;;;;;;3.73;3.37;;;1.20;66.60;;;;;;5046721;28;20254;-56
2021/04/08 00:34:25;;;;;;;3.87;3.20;;;1.10;66.00;;;;;;5047052;28;20254;-56
2021/04/08 00:36:51;;;;;;;5.10;3.77;;;1.10;66.10;;;;;;5048320;28;20196;-56
2021/04/08 00:39:17;;;;;;;9.20;3.37;;;1.10;67.30;;;;;;5046299;28;20250;-56
2021/04/08 00:41:43;;;;;;;15.10;3.70;;;1.10;67.20;;;;;;5049251;28;20669;-56
2021/04/08 00:44:08;;;;;;;4.53;3.33;;;1.10;65.80;;;;;;5044323;28;20596;-56
2021/04/08 00:46:34;;;;;;;5.43;2.70;;;1.10;65.90;;;;;;5046417;28;20535;-56
2021/04/08 00:49:00;;;;;;;6.73;3.40;;;1.10;67.10;;;;;;5047334;28;20189;-57
2021/04/08 00:51:26;;;;;;;5.93;2.87;;;1.10;66.20;;;;;;5044737;28;20467;-56
2021/04/08 00:53:53;;;;;;;3.53;2.70;;;1.10;67.00;;;;;;5045098;28;20462;-56
2021/04/08 00:56:20;;;;;;;6.40;3.03;;;1.10;67.20;;;;;;5049024;28;20675;-56
2021/04/08 00:58:46;;;;;;;4.70;2.83;;;1.10;67.10;;;;;;5047822;28;20454;-56
2021/04/08 01:01:13;;;;;;;3.67;3.20;;;1.10;65.60;;;;;;5045851;28;20507;-56
2021/04/08 01:03:40;;;;;;;7.07;3.60;;;1.10;65.20;;;;;;5044359;28;20430;-56
2021/04/08 01:06:06;;;;;;;8.57;3.53;;;1.10;65.10;;;;;;5047761;28;20450;-56
2021/04/08 01:08:32;;;;;;;8.93;3.97;;;1.20;65.50;;;;;;5041830;28;21089;-56
2021/04/08 01:10:58;;;;;;;7.53;4.20;;;1.20;65.20;;;;;;5049008;28;20498;-56
2021/04/08 01:13:25;;;;;;;12.30;3.90;;;1.10;65.60;;;;;;5040677;28;20192;-56
2021/04/08 01:15:50;;;;;;;8.27;3.70;;;1.20;66.50;;;;;;5048484;28;20395;-56
2021/04/08 01:18:22;;;;;;;5.50;3.20;;;1.20;66.70;;;;;;5049232;28;20463;-56
2021/04/08 01:21:28;;;;;;;4.47;3.90;;;1.20;66.60;;;;;;5045957;28;20197;-56
2021/04/08 01:24:21;;;;;;;6.27;3.50;;;1.30;66.50;;;;;;5044219;28;20465;-57
2021/04/08 01:27:08;;;;;;;6.20;3.27;;;1.20;65.30;;;;;;5043435;28;20431;-57
2021/04/08 01:29:58;;;;;;;10.53;4.00;;;1.20;66.00;;;;;;5037739;28;20448;-56
2021/04/08 01:32:26;;;;;;;6.00;3.50;;;1.20;66.70;;;;;;5044856;28;20419;-56
2021/04/08 01:34:54;;;;;;;3.53;2.60;;;1.30;66.00;;;;;;5045416;28;20542;-56
2021/04/08 01:37:28;;;;;;;8.10;3.37;;;1.30;65.30;;;;;;5043971;28;20439;-57
2021/04/08 01:39:55;;;;;;;5.30;3.70;;;1.30;65.40;;;;;;5046352;28;20435;-56
2021/04/08 01:42:23;;;;;;;5.07;3.60;;;1.30;64.90;;;;;;5052416;28;20441;-56
2021/04/08 01:44:51;;;;;;;3.77;3.40;;;1.30;65.40;;;;;;5051830;28;20545;-56
2021/04/08 01:47:18;;;;;;;7.80;3.37;;;1.20;65.90;;;;;;5049509;28;20431;-56
2021/04/08 01:49:45;;;;;;;6.17;4.00;;;1.20;66.90;;;;;;5049925;28;20463;-57
2021/04/08 01:52:15;;;;;;;6.50;3.47;;;1.20;67.80;;;;;;5048959;28;20585;-56
2021/04/08 01:54:45;;;;;;;9.87;4.00;;;1.30;67.60;;;;;;5049104;28;20430;-56
2021/04/08 01:57:13;;;;;;;5.20;3.60;;;1.20;67.70;;;;;;5050444;28;20423;-57
2021/04/08 01:59:42;;;;;;;5.13;3.47;;;1.20;68.10;;;;;;5052165;28;21069;-56
2021/04/08 02:02:09;;;;;;;7.73;4.70;;;1.30;68.50;;;;;;5049072;28;20493;-57
2021/04/08 02:04:38;;;;;;;7.93;3.80;;;1.30;67.40;;;;;;5050539;28;20943;-56
2021/04/08 02:07:04;;;;;;;8.67;3.77;;;1.30;67.50;;;;;;5048266;28;20430;-56
2021/04/08 02:09:31;;;;;;;6.67;3.40;;;1.30;68.80;;;;;;5052416;28;20420;-56
2021/04/08 02:11:59;;;;;;;5.17;4.00;;;1.30;68.10;;;;;;5044697;28;20439;-56
2021/04/08 02:14:28;;;;;;;8.90;3.70;;;1.30;68.50;;;;;;5042193;28;21021;-56
2021/04/08 02:16:55;;;;;;;5.70;3.40;;;1.30;67.50;;;;;;5049314;28;20463;-56
2021/04/08 02:19:23;;;;;;;5.60;3.20;;;1.30;68.50;;;;;;5042576;28;20458;-57
2021/04/08 02:21:51;;;;;;;9.87;3.47;;;1.30;69.10;;;;;;5042029;28;20456;-56
2021/04/08 02:24:20;;;;;;;3.80;3.50;;;1.20;69.40;;;;;;5047116;28;20456;-56
2021/04/08 02:26:48;;;;;;;10.33;3.40;;;1.30;67.80;;;;;;5042792;28;20424;-57
2021/04/08 02:29:16;;;;;;;10.00;3.70;;;1.30;68.50;;;;;;5049711;28;20475;-56
2021/04/08 02:31:43;;;;;;;3.47;3.20;;;1.30;68.00;;;;;;5048941;28;20799;-56
2021/04/08 02:34:10;;;;;;;5.67;3.60;;;1.20;68.20;;;;;;5044639;28;20442;-56
2021/04/08 02:36:37;;;;;;;5.47;3.30;;;1.20;68.10;;;;;;5048715;28;20429;-57
2021/04/08 02:39:07;;;;;;;6.60;3.80;;;1.20;69.20;;;;;;5050408;28;20463;-56
2021/04/08 02:41:46;;;;;;;5.57;3.73;;;1.20;69.40;;;;;;5047605;28;20509;-57
2021/04/08 02:44:13;;;;;;;5.60;3.30;;;1.20;69.70;;;;;;5043823;28;20427;-57
2021/04/08 02:46:40;;;;;;;5.00;4.07;;;1.20;70.10;;;;;;5047830;28;20444;-56
2021/04/08 02:49:06;;;;;;;7.70;3.50;;;1.20;70.50;;;;;;5045423;28;20526;-56
2021/04/08 02:52:00;;;;;;;5.10;3.60;;;1.20;71.00;;;;;;5047866;28;20430;-56
2021/04/08 02:54:48;;;;;;;4.40;3.50;;;1.20;71.40;;;;;;5082581;28;20419;-56
2021/04/08 02:57:59;;;;;;;6.87;4.53;;;1.20;72.60;;;;;;5047406;28;20622;-56
2021/04/08 03:00:32;;;;;;;4.30;3.43;;;1.20;73.20;;;;;;4990261;28;20441;-56
2021/04/08 03:03:05;;;;;;;6.53;3.37;;;1.20;73.70;;;;;;5043714;28;20436;-57
2021/04/08 03:05:37;;;;;;;5.43;3.47;;;1.20;72.80;;;;;;5042718;28;20874;-57
2021/04/08 03:08:06;;;;;;;6.93;3.47;;;1.20;71.10;;;;;;5051524;28;20458;-57
2021/04/08 03:10:32;;;;;;;3.93;3.37;;;1.10;72.40;;;;;;5049407;28;20520;-57
2021/04/08 03:13:01;;;;;;;9.43;3.70;;;1.20;73.50;;;;;;5051715;28;20604;-56
2021/04/08 03:15:31;;;;;;;5.37;3.30;;;1.20;73.20;;;;;;5040830;28;20423;-56
2021/04/08 03:17:59;;;;;;;4.30;3.77;;;1.20;73.30;;;;;;5048883;28;20447;-57
2021/04/08 03:20:26;;;;;;;5.37;3.57;;;1.20;72.70;;;;;;5049129;28;20944;-57
2021/04/08 03:22:54;;;;;;;5.83;3.70;;;1.20;71.90;;;;;;5048585;28;20459;-56
2021/04/08 03:25:20;;;;;;;4.40;3.30;;;1.20;71.90;;;;;;5049045;28;20923;-56
2021/04/08 03:27:48;;;;;;;9.20;3.80;;;1.20;70.70;;;;;;5041495;28;20482;-56
2021/04/08 03:30:15;;;;;;;7.87;3.90;;;1.10;70.50;;;;;;5045404;28;20430;-57
2021/04/08 03:32:42;;;;;;;5.53;3.70;;;1.10;70.60;;;;;;5044656;28;20431;-56
2021/04/08 03:35:10;;;;;;;7.50;3.93;;;1.20;70.80;;;;;;5047057;28;20450;-56
2021/04/08 03:40:12;;;;;;;3.73;3.37;;;1.20;69.40;;;;;;5037205;28;20516;-58
2021/04/08 03:42:38;;;;;;;6.70;3.50;;;1.20;70.20;;;;;;5034619;28;20468;-57
2021/04/08 03:45:05;;;;;;;4.70;3.10;;;1.20;69.30;;;;;;5036142;28;20824;-58
2021/04/08 03:47:31;;;;;;;6.30;3.60;;;1.20;70.40;;;;;;5018169;28;20436;-57
2021/04/08 03:49:58;;;;;;;7.80;3.73;;;1.20;69.70;;;;;;5022283;28;20456;-60
2021/04/08 03:52:24;;;;;;;7.97;4.23;;;1.30;69.70;;;;;;5016860;28;20448;-60
2021/04/08 03:54:51;;;;;;;7.17;3.63;;;1.20;69.50;;;;;;5034184;28;20825;-58
2021/04/08 03:57:19;;;;;;;6.07;4.03;;;1.20;70.20;;;;;;5036408;28;20468;-59
2021/04/08 03:59:46;;;;;;;5.23;3.83;;;1.20;71.00;;;;;;5034245;28;20525;-58
2021/04/08 04:02:14;;;;;;;11.87;3.90;;;1.30;70.70;;;;;;5013681;28;20479;-59
2021/04/08 04:04:40;;;;;;;4.70;3.60;;;1.30;71.00;;;;;;5033890;28;20444;-58
2021/04/08 04:07:09;;;;;;;6.97;3.70;;;1.30;71.60;;;;;;5036925;28;20444;-58
2021/04/08 04:09:36;;;;;;;5.67;3.47;;;1.30;72.30;;;;;;5028416;28;20452;-57
2021/04/08 04:12:02;;;;;;;8.93;3.20;;;1.30;71.10;;;;;;5033947;28;20932;-58
2021/04/08 04:14:29;;;;;;;10.47;4.20;;;1.30;70.60;;;;;;5033676;28;20432;-59
2021/04/08 04:16:57;;;;;;;7.97;3.57;;;1.30;72.10;;;;;;5013123;28;20522;-58
2021/04/08 04:19:24;;;;;;;9.60;4.20;;;1.30;72.10;;;;;;5026766;28;20460;-57
2021/04/08 04:21:53;;;;;;;4.60;3.30;;;1.30;70.80;;;;;;5027918;28;20474;-58
2021/04/08 04:24:19;;;;;;;5.83;3.60;;;1.30;69.60;;;;;;5027451;28;20424;-58
2021/04/08 04:26:44;;;;;;;5.23;3.70;;;1.20;70.30;;;;;;5030815;28;20429;-57
2021/04/08 04:29:11;;;;;;;7.57;3.33;;;1.20;69.10;;;;;;5017493;28;20259;-58
2021/04/08 04:31:38;;;;;;;11.10;3.50;;;1.20;69.00;;;;;;5007446;28;20174;-58
2021/04/08 04:34:07;;;;;;;5.07;3.40;;;1.20;69.10;;;;;;5027936;28;20451;-58
2021/04/08 04:36:33;;;;;;;4.80;4.00;;;1.20;69.80;;;;;;5024867;28;20484;-59
2021/04/08 04:38:59;;;;;;;4.73;3.20;;;1.20;69.80;;;;;;5023629;28;20463;-59
2021/04/08 04:41:25;;;;;;;9.50;3.40;;;1.20;69.60;;;;;;5011015;28;20988;-58
2021/04/08 04:43:50;;;;;;;4.50;3.30;;;1.20;69.10;;;;;;5027961;28;20190;-58
2021/04/08 04:46:16;;;;;;;6.23;4.17;;;1.20;68.90;;;;;;5022701;28;20251;-57
2021/04/08 04:48:42;;;;;;;6.03;3.33;;;1.20;69.50;;;;;;5027217;28;20216;-55
2021/04/08 04:51:08;;;;;;;7.83;3.43;;;1.30;70.20;;;;;;5021228;28;20185;-59
2021/04/08 04:53:33;;;;;;;5.53;3.40;;;1.20;68.10;;;;;;5005654;28;20182;-55
2021/04/08 04:56:02;;;;;;;5.70;3.53;;;1.20;68.90;;;;;;5032131;28;20189;-58
2021/04/08 04:58:28;;;;;;;8.93;3.77;;;1.20;69.60;;;;;;5030494;28;20212;-57
2021/04/08 05:00:53;;;;;;;12.23;4.03;;;1.20;70.50;;;;;;5027548;28;20444;-57
2021/04/08 05:03:19;;;;;;;9.27;3.90;;;1.20;70.50;;;;;;5018147;28;20185;-56
2021/04/08 05:05:45;;;;;;;5.73;3.77;;;1.20;70.60;;;;;;5006650;28;20821;-58
2021/04/08 05:08:10;;;;;;;7.57;3.57;;;1.20;69.70;;;;;;5011723;28;20196;-57
2021/04/08 05:10:36;;;;;;;3.73;3.40;;;1.20;69.50;;;;;;5027503;28;20169;-57
2021/04/08 05:13:02;;;;;;;5.23;4.00;;;1.20;69.30;;;;;;5011918;28;20177;-57
2021/04/08 05:15:28;;;;;;;7.80;4.20;;;1.20;69.60;;;;;;5009520;28;20378;-56
2021/04/08 05:17:53;;;;;;;8.13;3.90;;;1.20;69.70;;;;;;5025300;28;20185;-57
2021/04/08 05:20:19;;;;;;;4.83;3.00;;;1.30;70.40;;;;;;5017055;28;20178;-57
2021/04/08 05:22:45;;;;;;;3.43;3.17;;;1.30;68.90;;;;;;5010224;28;20216;-58
2021/04/08 05:25:13;;;;;;;13.97;3.40;;;1.30;68.60;;;;;;5032073;28;20177;-57
2021/04/08 05:27:38;;;;;;;3.83;3.00;;;1.30;67.70;;;;;;5032642;28;20174;-59
2021/04/08 05:30:05;;;;;;;4.67;3.10;;;1.30;66.40;;;;;;5020503;28;20479;-59
2021/04/08 05:32:33;;;;;;;5.63;3.40;;;1.30;67.50;;;;;;5016098;28;20399;-58
2021/04/08 05:34:59;;;;;;;4.10;3.50;;;1.30;66.50;;;;;;5019987;28;20412;-59
2021/04/08 05:37:24;;;;;;;6.17;3.30;;;1.30;66.10;;;;;;5024970;28;20448;-57
2021/04/08 05:39:50;;;;;;;4.50;3.40;;;1.30;64.90;;;;;;5015759;28;20215;-58
2021/04/08 05:42:16;;;;;;;6.50;3.80;;;1.30;65.50;;;;;;5029424;28;20226;-58
2021/04/08 05:44:41;;;;;;;5.70;2.90;;;1.30;65.70;;;;;;5020935;28;20642;-58
2021/04/08 05:47:07;;;;;;;5.30;3.50;;;1.40;66.40;;;;;;5002204;28;20200;-56
2021/04/08 05:49:33;;;;;;;6.07;3.40;;;1.40;66.80;;;;;;5019305;28;20205;-57
2021/04/08 05:51:58;;;;;;;10.10;4.23;;;1.50;68.00;;;;;;5025890;28;20181;-57
2021/04/08 05:54:24;;;;;;;8.93;4.77;;;1.50;67.10;;;;;;5018623;28;20193;-58
2021/04/08 05:56:49;;;;;;;7.03;4.33;;;1.50;67.30;;;;;;5025796;28;20284;-57
2021/04/08 05:59:15;;;;;;;6.57;4.67;;;1.60;66.50;;;;;;5007145;28;20710;-65
2021/04/08 06:01:41;;;;;;;5.67;3.70;;;1.60;65.40;;;;;;5013482;28;20223;-57
2021/04/08 06:04:07;;;;;;;10.30;4.10;;;1.60;65.60;;;;;;5017915;28;20221;-57
2021/04/08 06:06:32;;;;;;;5.00;3.47;;;1.60;64.30;;;;;;5021823;28;20181;-58
2021/04/08 06:08:58;;;;;;;5.60;3.63;;;1.70;63.90;;;;;;5022851;28;20224;-57
2021/04/08 06:11:23;;;;;;;11.37;3.73;;;1.70;63.20;;;;;;5020900;28;20570;-57
2021/04/08 06:13:50;;;;;;;12.17;3.93;;;1.80;63.90;;;;;;5003333;28;20264;-57
2021/04/08 06:16:16;;;;;;;5.97;4.50;;;1.80;64.20;;;;;;5023888;28;20178;-59
2021/04/08 06:18:41;;;;;;;5.70;4.60;;;1.90;64.10;;;;;;5030289;28;20458;-57
2021/04/08 06:21:07;;;;;;;6.43;3.90;;;2.00;64.70;;;;;;5022697;28;20251;-57
2021/04/08 06:23:32;;;;;;;10.07;4.90;;;2.10;63.70;;;;;;5014395;28;20679;-60
2021/04/08 06:25:58;;;;;;;13.17;4.80;;;2.10;62.70;;;;;;5027037;28;20791;-59
2021/04/08 06:28:24;;;;;;;7.40;4.37;;;2.10;61.00;;;;;;5015655;28;20206;-57
2021/04/08 06:30:50;;;;;;;9.30;5.23;;;2.20;61.50;;;;;;5027230;28;20208;-61
2021/04/08 06:33:16;;;;;;;7.50;4.20;;;2.20;61.30;;;;;;5027505;28;20437;-57
2021/04/08 06:35:44;;;;;;;6.07;4.00;;;2.30;60.70;;;;;;5044892;28;20239;-58
2021/04/08 06:38:10;;;;;;;4.90;3.97;;;2.20;59.90;;;;;;5029064;28;20202;-58
2021/04/08 06:40:35;;;;;;;8.80;3.80;;;2.20;58.50;;;;;;5015211;28;20437;-58
2021/04/08 06:43:02;;;;;;;7.27;3.90;;;2.30;58.80;;;;;;5037960;28;20684;-57
2021/04/08 06:45:30;;;;;;;7.73;4.07;;;2.30;58.60;;;;;;5029035;28;20184;-58
2021/04/08 06:48:02;;;;;;;5.37;3.30;;;2.30;59.00;;;;;;5024864;28;20974;-61
2021/04/08 06:50:33;;;;;;;14.43;4.10;;;2.40;57.20;;;;;;5028631;28;20437;-58
2021/04/08 06:53:00;;;;;;;10.90;3.57;;;2.40;56.60;;;;;;5025740;28;20471;-58
2021/04/08 06:55:27;;;;;;;6.10;4.07;;;2.40;56.20;;;;;;5021010;28;20438;-59
2021/04/08 06:57:54;;;;;;;5.60;3.40;;;2.50;56.60;;;;;;5010576;28;20441;-60
2021/04/08 07:00:20;;;;;;;5.60;4.00;;;2.50;55.90;;;;;;5011393;28;20503;-58
2021/04/08 07:02:46;;;;;;;8.73;3.37;;;2.60;56.40;;;;;;5013196;28;20748;-60
2021/04/08 07:05:12;;;;;;;6.63;3.70;;;2.50;54.00;;;;;;5020403;28;20501;-60
2021/04/08 07:07:38;;;;;;;9.07;3.70;;;2.40;54.10;;;;;;5023638;28;20176;-57
2021/04/08 07:10:05;;;;;;;6.60;3.43;;;2.40;55.10;;;;;;5025886;28;20979;-58
2021/04/08 07:12:31;;;;;;;8.87;5.20;;;2.50;54.90;;;;;;5010996;28;20595;-58
2021/04/08 07:14:56;;;;;;;11.50;3.47;;;2.60;55.20;;;;;;5024635;28;20464;-57
2021/04/08 07:17:22;;;;;;;7.13;3.77;;;2.70;54.20;;;;;;5026862;28;20472;-58
2021/04/08 07:19:48;;;;;;;7.63;4.30;;;2.80;54.30;;;;;;5029738;28;20304;-58
2021/04/08 07:22:16;;;;;;;9.17;4.20;;;2.90;53.70;;;;;;5022199;28;20201;-58
2021/04/08 07:24:47;;;;;;;6.00;4.20;;;3.10;53.10;;;;;;5026500;28;20436;-59
2021/04/08 07:27:19;;;;;;;6.33;4.50;;;3.20;52.20;;;;;;5025504;28;20442;-58
2021/04/08 07:29:54;;;;;;;8.53;4.57;;;3.30;51.50;;;;;;5039922;28;20479;-64
2021/04/08 07:32:25;;;;;;;13.30;4.13;;;3.40;50.80;;;;;;5030088;28;20457;-58
2021/04/08 07:34:54;;;;;;;6.43;4.00;;;3.50;50.80;;;;;;5048439;28;20454;-62
2021/04/08 07:37:34;;;;;;;6.73;4.27;;;3.40;49.90;;;;;;5044554;28;20436;-57
2021/04/08 07:40:13;;;;;;;8.10;3.90;;;3.50;49.50;;;;;;5045589;28;20469;-56
2021/04/08 07:42:39;;;;;;;8.20;4.13;;;3.40;50.20;;;;;;5026784;28;20471;-57
2021/04/08 07:45:06;;;;;;;5.33;3.30;;;3.40;48.80;;;;;;5047834;28;20546;-59
2021/04/08 07:47:35;;;;;;;7.20;3.60;;;3.30;48.00;;;;;;5025932;28;20728;-58
2021/04/08 07:50:04;;;;;;;10.17;4.27;;;3.30;48.10;;;;;;5008918;28;20501;-59
2021/04/08 07:52:39;;;;;;;6.57;3.87;;;3.20;48.70;;;;;;5035758;28;20445;-59
2021/04/08 07:55:33;;;;;;;5.43;3.47;;;3.20;49.10;;;;;;5055427;28;20501;-58
2021/04/08 07:58:13;;;;;;;5.53;3.60;;;3.30;49.70;;;;;;5026255;28;20443;-57
2021/04/08 08:00:49;;;;;;;7.83;3.60;;;3.30;49.50;;;;;;5036341;28;20519;-59
2021/04/08 08:03:23;;;;;;;10.83;3.47;;;3.30;48.30;;;;;;5037966;28;20498;-60
2021/04/08 08:05:50;;;;;;;4.03;3.57;;;3.30;48.30;;;;;;5029970;28;20445;-58
2021/04/08 08:08:20;;;;;;;6.03;3.60;;;3.20;48.10;;;;;;5022474;28;20574;-57
2021/04/08 08:10:57;;;;;;;4.13;3.10;;;3.30;48.40;;;;;;5027408;28;20430;-57
2021/04/08 08:13:37;;;;;;;8.60;3.57;;;3.40;49.20;;;;;;5030387;28;20422;-57
2021/04/08 08:16:05;;;;;;;7.63;3.90;;;3.60;47.40;;;;;;5020325;28;20433;-57
2021/04/08 08:18:33;;;;;;;5.53;3.00;;;3.80;47.10;;;;;;5018823;28;20485;-57
2021/04/08 08:21:08;;;;;;;3.77;3.20;;;3.90;46.30;;;;;;5004168;28;20423;-57
2021/04/08 08:23:39;;;;;;;4.87;2.87;;;4.00;45.10;;;;;;5027402;28;20451;-57
2021/04/08 08:26:26;;;;;;;3.17;2.70;;;4.00;43.80;;;;;;5018670;28;20440;-57
2021/04/08 08:28:53;;;;;;;2.70;2.50;;;3.90;43.70;;;;;;5023588;28;20514;-57
2021/04/08 08:31:48;;;;;;;4.43;3.07;;;4.00;44.00;;;;;;5020916;28;20436;-58
2021/04/08 08:34:17;;;;;;;5.60;3.30;;;4.00;43.70;;;;;;5016602;28;20975;-57
2021/04/08 08:36:45;;;;;;;3.30;2.63;;;4.20;43.40;;;;;;5002309;28;20437;-56
2021/04/08 08:39:14;;;;;;;4.67;2.50;;;4.40;43.50;;;;;;5018458;28;20485;-57
2021/04/08 08:41:40;;;;;;;3.13;2.73;;;4.60;43.80;;;;;;5020718;28;20486;-58
2021/04/08 08:44:08;;;;;;;2.93;2.47;;;4.90;44.50;;;;;;5019922;28;20523;-54
2021/04/08 08:47:01;;;;;;;3.77;2.37;;;5.10;41.90;;;;;;5021861;28;20993;-54
2021/04/08 08:49:43;;;;;;;3.57;2.57;;;5.10;39.90;;;;;;4977422;28;20458;-55
2021/04/08 08:52:16;;;;;;;5.27;2.97;;;5.20;39.10;;;;;;5020304;28;20442;-55
2021/04/08 08:54:42;;;;;;;2.50;2.30;;;5.30;39.20;;;;;;5023698;28;20449;-57
2021/04/08 08:57:09;;;;;;;4.77;3.00;;;5.30;37.50;;;;;;5015100;28;20435;-56
2021/04/08 08:59:36;;;;;;;6.07;2.80;;;5.20;37.20;;;;;;5023773;28;20458;-55
2021/04/08 09:02:02;;;;;;;3.10;2.33;;;5.00;37.70;;;;;;5024839;28;20459;-57
2021/04/08 09:04:29;;;;;;;3.20;2.87;;;5.00;38.30;;;;;;5019595;28;20490;-55
2021/04/08 09:06:58;;;;;;;3.60;2.80;;;5.10;38.80;;;;;;5028221;28;20199;-55
2021/04/08 09:09:27;;;;;;;3.87;2.53;;;5.30;38.60;;;;;;5021493;28;20524;-56
2021/04/08 09:11:53;;;;;;;4.57;3.70;;;5.50;37.80;;;;;;5022739;28;21074;-55
2021/04/08 09:14:19;;;;;;;4.13;2.80;;;5.60;36.70;;;;;;5024684;28;20917;-54
2021/04/08 09:16:47;;;;;;;5.27;2.90;;;5.50;36.60;;;;;;5024183;28;20433;-55
2021/04/08 09:19:13;;;;;;;3.33;3.03;;;5.30;36.20;;;;;;5023129;28;20462;-55
2021/04/08 09:21:48;;;;;;;8.67;3.30;;;5.30;37.30;;;;;;5026985;28;20459;-54
2021/04/08 09:24:15;;;;;;;6.60;2.97;;;5.30;37.60;;;;;;5014244;28;20433;-54
2021/04/08 09:26:42;;;;;;;3.10;2.70;;;5.30;38.40;;;;;;5029390;28;20444;-58
2021/04/08 09:29:10;;;;;;;5.07;3.53;;;5.20;37.50;;;;;;5038505;28;20465;-56
2021/04/08 09:31:35;;;;;;;4.93;3.00;;;5.10;37.70;;;;;;5038332;28;20444;-55
2021/04/08 09:34:04;;;;;;;3.30;3.00;;;4.90;37.20;;;;;;5021363;28;20826;-54
2021/04/08 09:36:37;;;;;;;4.27;3.20;;;4.90;38.60;;;;;;5031047;28;20187;-55
2021/04/08 09:39:03;;;;;;;6.40;3.00;;;4.90;38.90;;;;;;5053543;22;20452;-59
2021/04/08 09:41:46;;;;;;;4.67;3.13;;;4.90;38.10;;;;;;5062234;28;20443;-59
2021/04/08 09:44:16;;;;;;;5.27;3.20;;;4.90;38.70;;;;;;5056709;28;20544;-59
2021/04/08 09:46:55;;;;;;;3.07;2.87;;;5.00;38.60;;;;;;5070991;28;20416;-59
2021/04/08 09:49:39;;;;;;;4.33;3.40;;;5.10;39.10;;;;;;5060493;28;21084;-58
2021/04/08 09:52:06;;;;;;;4.60;3.23;;;5.30;39.20;;;;;;5063052;28;20457;-55
2021/04/08 09:54:40;;;;;;;11.27;3.07;;;5.40;38.50;;;;;;5066984;28;20425;-55
2021/04/08 09:57:07;;;;;;;6.53;2.97;;;5.50;38.80;;;;;;5058690;28;20460;-59
2021/04/08 09:59:57;;;;;;;6.47;3.23;;;5.60;38.70;;;;;;5060001;28;20448;-58
2021/04/08 10:02:24;;;;;;;3.13;2.60;;;5.60;38.80;;;;;;5064447;28;20474;-59
2021/04/08 10:05:08;;;;;;;4.80;2.57;;;5.60;37.70;;;;;;5063280;28;20515;-58
2021/04/08 10:07:57;;;;;;;5.30;3.17;;;5.50;37.20;;;;;;5063016;28;20422;-60
2021/04/08 10:10:38;;;;;;;7.17;2.93;;;5.40;37.10;;;;;;5061311;28;20478;-58
2021/04/08 10:13:17;;;;;;;3.27;2.97;;;5.40;37.20;;;;;;5067344;28;20424;-58
2021/04/08 10:15:43;;;;;;;4.63;2.77;;;5.70;39.20;;;;;;5063914;28;20435;-58
2021/04/08 10:18:14;;;;;;;4.20;3.20;;;6.20;40.10;;;;;;5067635;28;20812;-58
2021/04/08 10:20:41;;;;;;;4.63;2.80;;;6.50;39.20;;;;;;5056749;28;20561;-58
2021/04/08 10:23:06;;;;;;;4.13;3.00;;;6.60;37.60;;;;;;5061323;28;20488;-59
2021/04/08 10:25:33;;;;;;;3.90;3.33;;;6.60;36.90;;;;;;5063438;28;20488;-59
2021/04/08 10:27:59;;;;;;;3.63;3.33;;;6.50;37.10;;;;;;5063601;28;20217;-60
2021/04/08 10:30:26;;;;;;;4.13;2.90;;;6.40;36.70;;;;;;5070370;28;20455;-60
2021/04/08 10:32:54;;;;;;;6.27;4.83;;;6.30;37.40;;;;;;5063395;28;20457;-60
2021/04/08 10:35:30;;;;;;;4.40;3.20;;;6.30;37.60;;;;;;5061295;28;20420;-60
2021/04/08 10:38:03;;;;;;;5.23;2.97;;;6.30;37.40;;;;;;5059218;28;21106;-60
2021/04/08 10:40:29;;;;;;;5.50;3.23;;;6.40;38.10;;;;;;5058119;28;20460;-59
2021/04/08 10:43:15;;;;;;;4.17;3.00;;;6.50;36.40;;;;;;5062295;28;20467;-58
2021/04/08 10:46:19;;;;;;;4.53;2.93;;;6.50;37.00;;;;;;5057486;28;20512;-60
2021/04/08 10:48:44;;;;;;;6.33;3.50;;;6.60;36.00;;;;;;5052021;28;20494;-60
2021/04/08 10:51:13;;;;;;;6.20;3.00;;;6.60;35.20;;;;;;5063388;28;20482;-62
2021/04/08 10:53:46;;;;;;;4.00;3.20;;;6.70;35.50;;;;;;5065330;28;20228;-57
2021/04/08 10:56:16;;;;;;;6.17;3.30;;;6.80;35.60;;;;;;5054135;28;20442;-60
2021/04/08 10:58:42;;;;;;;4.30;2.90;;;6.80;34.40;;;;;;5058054;28;20432;-58
2021/04/08 11:01:07;;;;;;;5.23;3.60;;;6.70;35.30;;;;;;5075826;28;20440;-60
2021/04/08 11:03:33;;;;;;;10.67;3.57;;;6.70;35.20;;;;;;5060630;28;20791;-58
2021/04/08 11:05:58;;;;;;;3.07;2.70;;;6.70;34.90;;;;;;5062555;28;20720;-60
2021/04/08 11:08:24;;;;;;;4.47;3.73;;;6.60;34.70;;;;;;5060724;28;20649;-60
2021/04/08 11:10:50;;;;;;;10.40;3.63;;;6.80;35.80;;;;;;5061287;28;20738;-59
2021/04/08 11:13:15;;;;;;;5.33;3.53;;;7.20;36.60;;;;;;5061562;28;20175;-60
2021/04/08 11:15:42;;;;;;;3.30;3.00;;;7.60;35.30;;;;;;5072028;28;20197;-57
2021/04/08 11:18:13;;;;;;;4.20;3.10;;;7.90;35.60;;;;;;5054707;28;20232;-56
2021/04/08 11:20:41;;;;;;;9.70;3.77;;;8.10;34.70;;;;;;5058729;28;20499;-57
2021/04/08 11:23:08;;;;;;;4.50;3.30;;;8.20;33.80;;;;;;5059137;28;20505;-58
2021/04/08 11:25:35;;;;;;;6.50;3.30;;;8.20;32.90;;;;;;5059849;28;20440;-59
2021/04/08 11:28:03;;;;;;;3.40;3.10;;;8.40;33.80;;;;;;5060048;28;20515;-60
2021/04/08 11:30:31;;;;;;;3.70;3.40;;;8.60;33.00;;;;;;5062930;28;20478;-59
2021/04/08 11:32:59;;;;;;;4.80;2.90;;;8.60;32.80;;;;;;5065398;28;20602;-59
2021/04/08 11:35:39;;;;;;;6.63;3.17;;;8.30;32.20;;;;;;5059460;28;20578;-60
2021/04/08 11:38:25;;;;;;;4.43;3.10;;;8.00;32.40;;;;;;5061909;28;20463;-59
2021/04/08 11:41:01;;;;;;;6.13;3.10;;;7.80;33.10;;;;;;5062105;28;20468;-60
2021/04/08 11:43:32;;;;;;;4.40;3.20;;;7.50;32.90;;;;;;5058960;28;21223;-60
2021/04/08 11:46:00;;;;;;;5.90;4.63;;;7.30;32.90;;;;;;5054221;28;20504;-59
2021/04/08 11:48:38;;;;;;;5.13;3.60;;;7.30;33.30;;;;;;5063205;28;20482;-58
2021/04/08 11:51:06;;;;;;;6.93;4.27;;;7.60;34.30;;;;;;5058827;28;20536;-59
2021/04/08 11:53:43;;;;;;;4.10;3.23;;;7.80;32.90;;;;;;5062150;28;20498;-59
2021/04/08 11:56:35;;;;;;;3.77;3.40;;;7.80;33.10;;;;;;5056342;28;20421;-59
2021/04/08 11:59:19;;;;;;;5.63;3.83;;;8.10;33.30;;;;;;5058775;28;20439;-59
2021/04/08 12:01:46;;;;;;;3.63;2.97;;;8.40;34.10;;;;;;5061436;28;20956;-60
2021/04/08 12:04:18;;;;;;;4.77;3.40;;;8.30;32.20;;;;;;5073596;28;20452;-59
2021/04/08 12:06:53;;;;;;;8.30;3.80;;;8.20;32.50;;;;;;5063998;28;20424;-59
2021/04/08 12:09:53;;;;;;;4.23;3.17;;;8.50;33.40;;;;;;5066539;28;20456;-59
2021/04/08 12:12:30;;;;;;;5.50;4.30;;;9.10;33.30;;;;;;5077089;28;20421;-59
2021/04/08 12:15:04;;;;;;;5.27;3.03;;;9.70;33.70;;;;;;5075055;28;21244;-59
2021/04/08 12:17:31;;;;;;;3.77;2.87;;;10.20;32.70;;;;;;5062050;28;20425;-60
2021/04/08 12:20:16;;;;;;;5.93;3.40;;;10.10;31.10;;;;;;5062368;28;20539;-59
2021/04/08 12:22:42;;;;;;;8.57;3.10;;;9.90;31.70;;;;;;5057883;28;20463;-59
2021/04/08 12:25:19;;;;;;;5.90;3.47;;;10.20;31.70;;;;;;5057313;28;20440;-59
2021/04/08 12:27:46;;;;;;;6.67;3.60;;;10.70;33.20;;;;;;5062684;28;20424;-59
2021/04/08 12:30:14;;;;;;;9.37;3.23;;;11.20;31.70;;;;;;5058172;28;20484;-59
2021/04/08 12:32:40;;;;;;;5.30;3.50;;;11.20;29.50;;;;;;5058992;28;20475;-57
2021/04/08 12:35:08;;;;;;;3.83;3.30;;;11.00;28.70;;;;;;5057246;28;20428;-59
2021/04/08 12:37:34;;;;;;;6.60;3.97;;;10.60;29.40;;;;;;5061489;28;20441;-61
2021/04/08 12:39:59;;;;;;;4.83;3.47;;;10.20;29.70;;;;;;5060097;28;20471;-58
2021/04/08 12:42:25;;;;;;;7.77;3.60;;;9.90;31.70;;;;;;5063205;28;20467;-58
2021/04/08 12:44:51;;;;;;;9.30;3.30;;;9.60;32.30;;;;;;5078909;28;20213;-58
2021/04/08 12:47:19;;;;;;;9.53;3.30;;;9.40;33.20;;;;;;5063024;28;20261;-60
2021/04/08 12:49:45;;;;;;;9.17;3.40;;;9.30;34.60;;;;;;5061430;28;20199;-60
2021/04/08 12:52:11;;;;;;;5.40;3.57;;;9.40;34.20;;;;;;5071037;28;20432;-60
2021/04/08 12:54:36;;;;;;;4.80;3.87;;;9.80;32.90;;;;;;5061097;28;20216;-60
2021/04/08 12:57:03;;;;;;;5.50;3.53;;;9.80;31.50;;;;;;5062265;28;20239;-59
2021/04/08 12:59:29;;;;;;;5.10;3.60;;;9.90;32.40;;;;;;5064904;28;20194;-60
2021/04/08 13:01:55;;;;;;;8.00;3.60;;;10.00;30.70;;;;;;5058802;28;20456;-59
2021/04/08 13:04:20;;;;;;;4.50;3.80;;;9.90;31.30;;;;;;5056078;28;20458;-59
2021/04/08 13:06:46;;;;;;;5.13;3.07;;;9.70;31.90;;;;;;5077257;28;20243;-60
2021/04/08 13:09:12;;;;;;;3.40;3.10;;;10.20;33.70;;;;;;5064868;28;20273;-60